Terminal Aerodrome Forecast
Issued by NWS

Home | Current Version | Previous Version | Text Only | Print | Product List | Glossary On
Versions: 1 2 3 4 5 6 7 8 9 10 11 12 13 14 15 16 17 18 19 20 21 22 23 24 25 26 27
016
FTUS43 KLSX 252100 AAA
TAFSUS
TAF AMD
KSUS 252100Z 2521/2618 15010KT P6SM -SHRA VCTS SCT025 OVC040CB
      TEMPO 2521/2523 BKN025CB
     FM260000 15009KT P6SM -SHRA OVC070
     FM260200 16007KT P6SM VCSH OVC060
     FM260900 21005KT P6SM OVC025
     FM261200 21006KT P6SM OVC010=

USA.gov is the U.S. government's official web portal to all federal, state and local government web resources and services.